createdAt,value
2022-12-09T00:00:28.725Z,-0.60
2022-12-09T00:02:59.960Z,-0.70
2022-12-09T00:05:27.005Z,-0.80
2022-12-09T00:07:53.931Z,-0.70
2022-12-09T00:10:20.838Z,-0.90
2022-12-09T00:12:47.533Z,-0.80
2022-12-09T00:15:14.515Z,-0.90
2022-12-09T00:17:41.365Z,-1.10
2022-12-09T00:20:08.653Z,-0.90
2022-12-09T00:22:35.615Z,-1.00
2022-12-09T00:25:02.360Z,-0.90
2022-12-09T01:10:08.789Z,-1.30
2022-12-09T01:39:57.357Z,-1.90
2022-12-09T01:42:24.878Z,-2.00
2022-12-09T01:45:10.551Z,-2.00
2022-12-09T01:47:37.534Z,-2.00
2022-12-09T01:50:04.774Z,-2.00
2022-12-09T01:52:32.170Z,-1.90
2022-12-09T01:54:59.099Z,-2.00
2022-12-09T01:57:25.829Z,-1.10
2022-12-09T01:59:53.288Z,-1.90
2022-12-09T02:02:20.433Z,-1.90
2022-12-09T02:04:48.261Z,-2.00
2022-12-09T02:07:15.706Z,-2.00
2022-12-09T02:09:43.052Z,-1.90
2022-12-09T02:12:13.058Z,-1.80
2022-12-09T02:14:48.824Z,-1.80
2022-12-09T02:17:23.867Z,-1.80
2022-12-09T02:19:51.145Z,-1.80
2022-12-09T02:22:21.121Z,-1.70
2022-12-09T02:25:08.017Z,-1.80
2022-12-09T02:27:37.753Z,-1.80
2022-12-09T02:30:07.039Z,-1.80
2022-12-09T02:32:43.341Z,-1.80
2022-12-09T02:38:39.972Z,-1.60
2022-12-09T02:41:26.319Z,-1.60
2022-12-09T02:44:08.139Z,-1.60
2022-12-09T02:46:36.209Z,-1.60
2022-12-09T02:49:03.516Z,-1.60
2022-12-09T02:51:32.585Z,-1.60
2022-12-09T02:54:03.890Z,-1.60
2022-12-09T02:56:31.193Z,-1.70
2022-12-09T02:58:58.023Z,-1.70
2022-12-09T03:01:31.625Z,-1.70
2022-12-09T03:03:58.651Z,-1.70
2022-12-09T03:06:28.405Z,-1.70
2022-12-09T03:08:58.899Z,-1.70
2022-12-09T03:11:26.636Z,-1.70
2022-12-09T03:14:06.825Z,-1.80
2022-12-09T03:16:35.934Z,-1.90
2022-12-09T03:19:08.879Z,-1.90
2022-12-09T03:21:36.819Z,-2.00
2022-12-09T03:24:04.498Z,-2.00
2022-12-09T03:26:33.410Z,-2.10
2022-12-09T03:29:01.223Z,-2.10
2022-12-09T03:31:29.533Z,-2.20
2022-12-09T03:33:58.613Z,-2.20
2022-12-09T03:36:26.483Z,-2.30
2022-12-09T03:38:53.603Z,-2.40
2022-12-09T03:41:25.791Z,-2.30
2022-12-09T03:43:58.010Z,-2.40
2022-12-09T03:46:25.208Z,-2.40
2022-12-09T03:48:52.071Z,-2.40
2022-12-09T03:51:24.670Z,-2.30
2022-12-09T03:54:01.240Z,-2.20
2022-12-09T04:10:29.264Z,-2.10
2022-12-09T04:12:55.913Z,-2.00
2022-12-09T04:15:22.725Z,-2.00
2022-12-09T04:17:49.737Z,-2.20
2022-12-09T04:20:16.413Z,-2.00
2022-12-09T04:22:43.314Z,-1.90
2022-12-09T04:25:10.318Z,-1.80
2022-12-09T04:27:36.977Z,-1.90
2022-12-09T04:30:04.537Z,-1.90
2022-12-09T04:32:33.671Z,-1.80
2022-12-09T04:35:00.765Z,-1.90
2022-12-09T04:37:27.475Z,-1.90
2022-12-09T04:39:54.113Z,-2.00
2022-12-09T04:42:21.067Z,-2.00
2022-12-09T04:44:47.664Z,-2.10
2022-12-09T04:47:14.284Z,-2.00
2022-12-09T04:49:40.904Z,-2.00
2022-12-09T04:52:07.472Z,-1.90
2022-12-09T04:54:34.176Z,-1.80
2022-12-09T04:57:01.055Z,-1.90
2022-12-09T04:59:30.180Z,-2.00
2022-12-09T05:01:57.228Z,-1.90
2022-12-09T05:04:24.115Z,-1.80
2022-12-09T05:06:50.889Z,-1.80
2022-12-09T05:09:17.768Z,-1.80
2022-12-09T05:11:44.926Z,-1.70
2022-12-09T05:14:11.881Z,-1.60
2022-12-09T05:16:38.643Z,-1.70
2022-12-09T05:19:05.492Z,-1.70
2022-12-09T05:21:32.489Z,-1.80
2022-12-09T05:23:59.581Z,-1.80
2022-12-09T05:26:26.508Z,-1.60
2022-12-09T05:28:53.233Z,-1.50
2022-12-09T05:31:22.862Z,-1.50
2022-12-09T05:33:50.476Z,-1.50
2022-12-09T05:36:18.960Z,-1.70
2022-12-09T05:38:45.767Z,-1.60
2022-12-09T05:41:12.791Z,-1.50
2022-12-09T05:43:40.185Z,-1.50
2022-12-09T05:46:07.786Z,-1.50
2022-12-09T05:48:35.351Z,-1.40
2022-12-09T05:51:02.232Z,-0.40
2022-12-09T05:53:29.800Z,-1.40
2022-12-09T05:55:56.743Z,-1.40
2022-12-09T05:58:23.515Z,-1.60
2022-12-09T06:00:50.797Z,-1.60
2022-12-09T06:03:17.928Z,-1.40
2022-12-09T06:05:45.140Z,-1.50
2022-12-09T06:08:12.096Z,-1.70
2022-12-09T06:10:39.852Z,-2.10
2022-12-09T06:13:07.298Z,-1.50
2022-12-09T06:15:34.473Z,-1.70
2022-12-09T06:18:01.347Z,-1.70
2022-12-09T06:20:28.529Z,-1.60
2022-12-09T06:22:55.287Z,-1.70
2022-12-09T06:25:22.121Z,-1.50
2022-12-09T06:27:51.987Z,-1.60
2022-12-09T06:30:19.061Z,-1.70
2022-12-09T06:32:46.074Z,-1.70
2022-12-09T06:35:13.643Z,-1.70
2022-12-09T06:37:41.001Z,-1.80
2022-12-09T06:40:08.651Z,-1.90
2022-12-09T06:42:35.589Z,-1.90
2022-12-09T06:45:02.501Z,-1.90
2022-12-09T06:47:29.687Z,-2.00
2022-12-09T06:50:02.613Z,-2.20
2022-12-09T06:52:32.882Z,-2.10
2022-12-09T06:54:59.986Z,-2.10
2022-12-09T06:57:26.889Z,-2.00
2022-12-09T06:59:53.792Z,-2.00
2022-12-09T07:02:20.950Z,-2.10
2022-12-09T07:04:53.322Z,-2.40
2022-12-09T07:07:20.319Z,-2.20
2022-12-09T07:09:47.900Z,-2.60
2022-12-09T07:12:14.862Z,-2.20
2022-12-09T07:14:41.818Z,-2.40
2022-12-09T07:17:08.686Z,-2.30
2022-12-09T07:19:36.269Z,-2.40
2022-12-09T07:22:03.075Z,-2.40
2022-12-09T07:24:29.840Z,-2.60
2022-12-09T07:26:56.835Z,-2.30
2022-12-09T07:29:23.624Z,-2.30
2022-12-09T07:31:50.667Z,-2.30
2022-12-09T07:34:17.616Z,-2.30
2022-12-09T07:36:44.735Z,-2.30
2022-12-09T07:39:13.398Z,-2.30
2022-12-09T07:41:40.644Z,-2.00
2022-12-09T07:44:08.669Z,-2.00
2022-12-09T07:46:35.674Z,-2.20
2022-12-09T07:49:03.677Z,-2.10
2022-12-09T07:51:30.862Z,-2.00
2022-12-09T07:53:58.659Z,-1.90
2022-12-09T07:56:25.603Z,-2.00
2022-12-09T07:58:54.082Z,-2.00
2022-12-09T08:01:23.014Z,-1.90
2022-12-09T08:03:50.579Z,-1.70
2022-12-09T08:06:19.569Z,-1.70
2022-12-09T08:08:47.326Z,-1.70
2022-12-09T08:11:16.278Z,-1.80
2022-12-09T08:13:43.156Z,-1.90
2022-12-09T08:16:11.504Z,-1.90
2022-12-09T08:18:38.647Z,-1.60
2022-12-09T08:21:06.810Z,-1.70
2022-12-09T08:23:34.321Z,-1.50
2022-12-09T08:26:01.797Z,-1.60
2022-12-09T08:28:29.127Z,-1.90
2022-12-09T08:30:56.567Z,-1.70
2022-12-09T08:33:23.792Z,-1.40
2022-12-09T08:35:51.217Z,-1.50
2022-12-09T08:38:17.951Z,-1.10
2022-12-09T08:40:45.037Z,-1.20
2022-12-09T08:43:12.098Z,-1.30
2022-12-09T08:45:40.758Z,-1.10
2022-12-09T08:48:08.114Z,-1.00
2022-12-09T08:50:36.203Z,-1.10
2022-12-09T08:53:03.169Z,-1.00
2022-12-09T08:55:30.039Z,-0.90
2022-12-09T08:57:57.331Z,-1.00
2022-12-09T09:00:24.237Z,-0.80
2022-12-09T09:02:51.043Z,-1.00
2022-12-09T09:05:18.756Z,-0.80
2022-12-09T09:07:45.956Z,-0.70
2022-12-09T09:10:13.605Z,-0.70
2022-12-09T09:12:43.620Z,-0.60
2022-12-09T09:15:11.592Z,-0.80
2022-12-09T09:17:38.695Z,-0.40
2022-12-09T09:20:06.833Z,-0.60
2022-12-09T09:22:34.589Z,-0.50
2022-12-09T09:25:01.663Z,-0.60
2022-12-09T09:27:28.438Z,-0.60
2022-12-09T09:29:55.603Z,-0.50
2022-12-09T09:32:22.468Z,-0.50
2022-12-09T09:34:50.721Z,-0.40
2022-12-09T09:37:17.717Z,-0.30
2022-12-09T09:39:44.747Z,-0.10
2022-12-09T09:42:21.647Z,-0.10
2022-12-09T09:44:49.524Z,0.00
2022-12-09T09:47:16.810Z,0.00
2022-12-09T09:49:53.357Z,-0.20
2022-12-09T09:52:24.690Z,0.10
2022-12-09T09:54:51.955Z,0.10
2022-12-09T09:57:18.769Z,0.00
2022-12-09T10:00:07.022Z,0.20
2022-12-09T10:02:42.800Z,0.50
2022-12-09T10:05:10.123Z,0.50
2022-12-09T10:07:40.127Z,0.70
2022-12-09T10:10:20.610Z,1.00
2022-12-09T10:13:01.171Z,1.30
2022-12-09T10:15:39.926Z,1.50
2022-12-09T10:18:19.413Z,1.70
2022-12-09T10:20:46.846Z,1.90
2022-12-09T10:23:15.472Z,1.70
2022-12-09T10:25:44.659Z,1.80
2022-12-09T10:28:11.634Z,1.80
2022-12-09T10:30:44.230Z,1.80
2022-12-09T10:33:16.655Z,2.00
2022-12-09T10:35:43.554Z,2.00
2022-12-09T10:38:11.977Z,2.10
2022-12-09T10:40:47.421Z,2.10
2022-12-09T10:43:42.499Z,2.20
2022-12-09T10:46:30.179Z,2.30
2022-12-09T10:49:02.231Z,2.20
2022-12-09T10:51:31.155Z,2.10
2022-12-09T10:54:00.132Z,2.10
2022-12-09T10:56:28.487Z,2.10
2022-12-09T10:59:10.593Z,2.00
2022-12-09T11:01:55.890Z,2.00
2022-12-09T11:04:26.348Z,2.10
2022-12-09T11:06:59.412Z,1.90
2022-12-09T11:09:29.076Z,1.90
2022-12-09T11:11:56.046Z,1.80
2022-12-09T11:14:39.757Z,1.80
2022-12-09T11:17:17.820Z,1.90
2022-12-09T11:19:50.494Z,2.00
2022-12-09T11:22:23.345Z,2.10
2022-12-09T11:24:52.858Z,2.10
2022-12-09T11:27:40.055Z,2.10
2022-12-09T11:30:13.979Z,2.10
2022-12-09T11:32:55.601Z,2.20
2022-12-09T11:35:42.752Z,2.10
2022-12-09T11:38:28.255Z,2.10
2022-12-09T11:41:00.957Z,2.10
2022-12-09T11:43:36.564Z,2.10
2022-12-09T11:46:22.628Z,2.20
2022-12-09T11:48:49.233Z,2.10
2022-12-09T11:51:21.321Z,2.20
2022-12-09T11:53:48.179Z,2.40
2022-12-09T11:56:25.723Z,2.30
2022-12-09T11:59:04.417Z,2.60
2022-12-09T12:01:31.142Z,2.60
2022-12-09T12:04:04.816Z,2.70
2022-12-09T12:06:40.593Z,2.70
2022-12-09T12:09:13.999Z,2.60
2022-12-09T12:11:45.028Z,2.50
2022-12-09T12:14:20.901Z,2.40
2022-12-09T12:17:03.412Z,2.50
2022-12-09T12:19:33.203Z,2.40
2022-12-09T12:22:05.969Z,2.40
2022-12-09T12:24:41.716Z,2.30
2022-12-09T12:27:26.762Z,2.30
2022-12-09T12:29:59.334Z,2.30
2022-12-09T12:32:36.040Z,2.40
2022-12-09T12:35:21.740Z,2.40
2022-12-09T12:38:07.107Z,2.50
2022-12-09T12:40:36.914Z,2.40
2022-12-09T12:43:22.275Z,2.40
2022-12-09T12:46:11.736Z,2.40
2022-12-09T12:48:38.390Z,2.40
2022-12-09T12:51:11.249Z,2.60
2022-12-09T12:53:43.289Z,2.60
2022-12-09T12:56:21.833Z,2.60
2022-12-09T12:58:52.877Z,2.60
2022-12-09T13:01:19.755Z,2.50
2022-12-09T13:03:46.422Z,2.50
2022-12-09T13:06:14.501Z,2.60
2022-12-09T13:08:44.193Z,3.50
2022-12-09T13:11:14.073Z,3.10
2022-12-09T13:13:46.811Z,3.10
2022-12-09T13:16:20.376Z,2.70
2022-12-09T13:18:47.960Z,2.70
2022-12-09T13:21:14.841Z,2.70
2022-12-09T13:23:53.604Z,2.50
2022-12-09T13:26:31.063Z,3.10
2022-12-09T13:29:03.939Z,3.30
2022-12-09T13:31:31.763Z,4.30
2022-12-09T13:34:07.599Z,3.30
2022-12-09T13:36:37.376Z,3.30
2022-12-09T13:39:04.430Z,3.40
2022-12-09T13:41:31.132Z,3.30
2022-12-09T13:44:05.335Z,3.30
2022-12-09T13:46:32.761Z,3.50
2022-12-09T13:49:08.294Z,3.20
2022-12-09T13:51:44.139Z,2.90
2022-12-09T13:54:14.878Z,3.30
2022-12-09T13:56:41.852Z,3.30
2022-12-09T13:59:08.542Z,2.60
2022-12-09T14:01:35.260Z,3.40
2022-12-09T14:04:13.605Z,3.30
2022-12-09T14:06:46.344Z,2.90
2022-12-09T14:09:24.593Z,2.50
2022-12-09T14:11:55.107Z,2.50
2022-12-09T14:14:27.768Z,2.30
2022-12-09T14:16:55.507Z,2.30
2022-12-09T14:19:25.260Z,2.20
2022-12-09T14:22:16.113Z,2.10
2022-12-09T14:24:43.037Z,2.20
2022-12-09T14:27:13.406Z,2.10
2022-12-09T14:29:44.396Z,2.10
2022-12-09T14:32:20.280Z,2.00
2022-12-09T14:34:48.343Z,2.10
2022-12-09T14:37:20.415Z,2.80
2022-12-09T14:39:49.545Z,1.70
2022-12-09T14:42:25.433Z,1.40
2022-12-09T14:45:10.994Z,1.80
2022-12-09T14:47:43.204Z,1.70
2022-12-09T14:50:20.685Z,1.60
2022-12-09T14:52:52.107Z,1.50
2022-12-09T14:55:18.988Z,1.40
2022-12-09T14:57:46.928Z,1.80
2022-12-09T15:00:25.956Z,1.20
2022-12-09T15:03:30.088Z,1.20
2022-12-09T15:05:39.753Z,1.10
2022-12-09T15:08:06.482Z,1.60
2022-12-09T15:10:34.471Z,0.90
2022-12-09T15:13:01.701Z,0.70
2022-12-09T15:15:36.480Z,1.60
2022-12-09T15:18:06.321Z,2.30
2022-12-09T15:20:35.428Z,0.70
2022-12-09T15:23:02.082Z,0.50
2022-12-09T15:25:28.933Z,0.50
2022-12-09T15:27:56.484Z,-0.50
2022-12-09T15:30:26.279Z,0.40
2022-12-09T15:32:53.090Z,0.30
2022-12-09T15:35:21.636Z,0.30
2022-12-09T15:37:49.647Z,0.20
2022-12-09T16:55:03.250Z,-0.80
2022-12-09T16:57:41.285Z,-0.90
2022-12-09T17:00:11.309Z,0.10
2022-12-09T17:02:40.767Z,-1.00
2022-12-09T17:05:07.904Z,-1.30
2022-12-09T17:07:34.838Z,-1.10
2022-12-09T17:10:01.530Z,-1.20
2022-12-09T17:12:28.241Z,-1.30
2022-12-09T17:14:54.959Z,-1.60
2022-12-09T17:17:21.636Z,-1.60
2022-12-09T17:19:48.315Z,-1.20
2022-12-09T17:22:14.980Z,-1.60
2022-12-09T17:24:41.741Z,-1.40
2022-12-09T17:27:08.456Z,-1.50
2022-12-09T17:29:35.364Z,-1.40
2022-12-09T17:32:02.064Z,-1.40
2022-12-09T17:34:28.815Z,-1.30
2022-12-09T17:36:55.494Z,-1.30
2022-12-09T17:39:24.692Z,-1.50
2022-12-09T17:41:51.471Z,-1.50
2022-12-09T17:44:18.199Z,-1.40
2022-12-09T17:46:44.844Z,-1.40
2022-12-09T17:49:11.510Z,-1.40
2022-12-09T17:51:38.226Z,-1.70
2022-12-09T17:54:05.460Z,-1.40
2022-12-09T17:56:32.180Z,-1.60
2022-12-09T17:59:03.723Z,-1.70
2022-12-09T18:01:30.736Z,-1.80
2022-12-09T18:04:01.615Z,-1.00
2022-12-09T18:06:34.207Z,-1.60
2022-12-09T18:09:01.343Z,-1.80
2022-12-09T18:11:28.004Z,-1.80
2022-12-09T18:13:55.324Z,-1.80
2022-12-09T18:16:22.048Z,-1.90
2022-12-09T18:18:49.093Z,-1.70
2022-12-09T18:21:16.627Z,-0.30
2022-12-09T18:23:43.451Z,-1.70
2022-12-09T18:26:11.421Z,-1.80
2022-12-09T18:28:38.207Z,-2.10
2022-12-09T18:31:05.849Z,-2.00
2022-12-09T18:33:32.510Z,-1.90
2022-12-09T18:35:59.145Z,-1.90
2022-12-09T18:38:25.793Z,-1.90
2022-12-09T18:41:01.581Z,-1.90
2022-12-09T18:43:30.272Z,-2.00
2022-12-09T18:46:01.008Z,-2.30
2022-12-09T18:48:27.730Z,-1.80
2022-12-09T18:50:54.426Z,-2.60
2022-12-09T18:53:21.071Z,-2.30
2022-12-09T18:55:47.746Z,-2.80
2022-12-09T18:58:27.276Z,-2.40
2022-12-09T19:01:14.045Z,-2.10
2022-12-09T19:03:40.801Z,-2.10
2022-12-09T19:06:15.481Z,-2.10
2022-12-09T19:08:42.172Z,-2.20
2022-12-09T19:11:08.843Z,-2.30
2022-12-09T19:13:35.524Z,-2.30
2022-12-09T19:16:05.863Z,-2.50
2022-12-09T19:18:32.592Z,-2.00
2022-12-09T19:21:09.592Z,-2.30
2022-12-09T19:23:36.894Z,-2.30
2022-12-09T19:26:03.981Z,-2.60
2022-12-09T19:28:30.634Z,-2.50
2022-12-09T19:30:57.323Z,-2.40
2022-12-09T19:33:24.006Z,-2.60
2022-12-09T19:35:50.680Z,-2.50
2022-12-09T19:40:44.560Z,-2.50
2022-12-09T19:43:11.288Z,-2.80
2022-12-09T19:45:37.966Z,-3.40
2022-12-09T19:48:04.659Z,-3.30
2022-12-09T19:50:31.523Z,-2.30
2022-12-09T19:52:58.556Z,-2.80
2022-12-09T19:55:25.213Z,-2.90
2022-12-09T19:57:51.922Z,-2.70
2022-12-09T20:00:18.582Z,-3.00
2022-12-09T20:02:45.316Z,-1.50
2022-12-09T20:05:12.068Z,-3.50
2022-12-09T20:07:38.717Z,-3.10
2022-12-09T20:10:05.998Z,-3.00
2022-12-09T20:12:34.864Z,-2.80
2022-12-09T20:15:01.544Z,-2.90
2022-12-09T20:17:28.191Z,-3.00
2022-12-09T20:19:54.889Z,-3.10
2022-12-09T20:22:21.541Z,-3.60
2022-12-09T20:24:48.219Z,-3.30
2022-12-09T20:27:14.871Z,-3.60
2022-12-09T20:29:41.614Z,-3.30
2022-12-09T20:32:08.869Z,-3.30
2022-12-09T20:34:35.695Z,-3.40
2022-12-09T20:37:02.688Z,-3.10
2022-12-09T20:39:29.342Z,-3.50
2022-12-09T20:41:56.065Z,-3.30
2022-12-09T20:46:52.519Z,-3.20
2022-12-09T20:49:26.637Z,-3.20
2022-12-09T20:51:54.147Z,-3.20
2022-12-09T20:54:20.911Z,-3.20
2022-12-09T20:56:47.909Z,-3.40
2022-12-09T20:59:14.606Z,-3.40
2022-12-09T21:01:41.325Z,-3.40
2022-12-09T21:04:08.545Z,-3.60
2022-12-09T21:06:36.681Z,-3.80
2022-12-09T21:09:04.732Z,-3.60
2022-12-09T21:11:32.474Z,-3.50
2022-12-09T21:14:00.446Z,-3.50
2022-12-09T21:16:31.975Z,-3.70
2022-12-09T21:18:59.684Z,-3.40
2022-12-09T21:21:28.955Z,-3.60
2022-12-09T21:23:55.914Z,-3.70
2022-12-09T21:26:23.741Z,-3.70
2022-12-09T21:28:50.835Z,-3.60
2022-12-09T21:31:19.483Z,-3.70
2022-12-09T21:33:47.927Z,-3.30
2022-12-09T21:36:15.754Z,-2.40
2022-12-09T21:38:42.788Z,-3.40
2022-12-09T21:41:11.176Z,-3.70
2022-12-09T21:43:38.300Z,-3.80
2022-12-09T21:46:06.413Z,-3.70
2022-12-09T21:48:33.518Z,-3.20
2022-12-09T21:51:00.850Z,-3.80
2022-12-09T21:53:27.512Z,-3.80
2022-12-09T21:56:00.859Z,-3.80
2022-12-09T21:58:29.128Z,-4.00
2022-12-09T22:00:55.795Z,-3.90
2022-12-09T22:03:22.441Z,-3.80
2022-12-09T22:05:52.568Z,-3.60
2022-12-09T22:08:21.873Z,-4.10
2022-12-09T22:10:48.536Z,-4.20
2022-12-09T22:13:15.195Z,-3.70
2022-12-09T22:15:41.848Z,-3.90
2022-12-09T22:18:08.508Z,-4.00
2022-12-09T22:21:24.135Z,-4.10
2022-12-09T22:23:22.417Z,-4.30
2022-12-09T22:25:49.075Z,-3.80
2022-12-09T22:28:15.750Z,-3.80
2022-12-09T22:30:42.526Z,-4.00
2022-12-09T22:33:09.237Z,-4.30
2022-12-09T22:35:35.889Z,-4.00
2022-12-09T22:38:08.352Z,-4.00
2022-12-09T22:40:38.450Z,-4.00
2022-12-09T22:43:05.155Z,-3.90
2022-12-09T22:45:31.835Z,-4.20
2022-12-09T22:47:58.482Z,-4.30
2022-12-09T22:50:25.128Z,-4.00
2022-12-09T22:52:51.807Z,-4.10
2022-12-09T22:55:18.478Z,-4.00
2022-12-09T22:57:45.224Z,-4.10
2022-12-09T23:00:17.568Z,-4.10
2022-12-09T23:02:44.249Z,-3.90
2022-12-09T23:05:11.048Z,-4.10
2022-12-09T23:07:37.730Z,-4.10
2022-12-09T23:10:04.680Z,-4.30
2022-12-09T23:12:31.372Z,-3.90
2022-12-09T23:14:58.057Z,-4.10
2022-12-09T23:17:24.681Z,-4.50
2022-12-09T23:19:51.342Z,-4.00
2022-12-09T23:22:18.311Z,-4.20
2022-12-09T23:24:44.975Z,-4.20
2022-12-09T23:27:11.681Z,-4.30
2022-12-09T23:29:38.397Z,-4.10
2022-12-09T23:32:05.105Z,-3.90
2022-12-09T23:34:31.841Z,-4.20
2022-12-09T23:36:58.616Z,-4.40
2022-12-09T23:39:25.323Z,-4.40
2022-12-09T23:41:51.958Z,-4.30
2022-12-09T23:44:18.901Z,-3.90
2022-12-09T23:46:45.792Z,-4.10
2022-12-09T23:49:12.791Z,-4.00
2022-12-09T23:51:40.532Z,-4.10
2022-12-09T23:54:08.281Z,-4.10
2022-12-09T23:56:36.771Z,-4.30
2022-12-09T23:59:06.605Z,-4.40
